createdAt,value
2018-09-27T00:01:17.493Z,7.53
2018-09-27T00:11:43.012Z,7.27
2018-09-27T00:16:46.616Z,7.20
2018-09-27T00:21:50.180Z,7.63
2018-09-27T00:26:53.436Z,7.30
2018-09-27T00:31:57.427Z,7.40
2018-09-27T00:37:00.655Z,8.00
2018-09-27T00:42:03.892Z,6.67
2018-09-27T00:47:07.134Z,6.93
2018-09-27T00:52:10.373Z,7.70
2018-09-27T00:57:13.952Z,7.97
2018-09-27T01:02:17.542Z,8.40
2018-09-27T01:07:21.203Z,9.10
2018-09-27T01:12:24.763Z,9.03
2018-09-27T01:17:28.343Z,8.40
2018-09-27T01:22:31.942Z,7.10
2018-09-27T01:27:35.560Z,8.20
2018-09-27T01:32:39.260Z,7.63
2018-09-27T01:37:42.824Z,6.40
2018-09-27T01:42:46.382Z,7.03
2018-09-27T01:47:50.238Z,8.10
2018-09-27T01:53:16.274Z,7.50
2018-09-27T01:58:19.932Z,9.30
2018-09-27T02:03:23.555Z,9.57
2018-09-27T02:08:27.142Z,9.63
2018-09-27T02:13:34.560Z,10.40
2018-09-27T02:18:38.421Z,8.43
2018-09-27T02:23:42.087Z,10.30
2018-09-27T02:28:46.228Z,9.27
2018-09-27T02:33:49.792Z,9.37
2018-09-27T02:39:05.629Z,9.63
2018-09-27T02:44:12.043Z,9.07
2018-09-27T02:49:15.647Z,9.50
2018-09-27T02:54:21.357Z,8.40
2018-09-27T02:59:25.062Z,9.40
2018-09-27T03:04:28.739Z,11.90
2018-09-27T03:09:32.356Z,13.47
2018-09-27T03:14:35.952Z,10.70
2018-09-27T03:19:39.912Z,9.67
2018-09-27T03:24:43.568Z,9.70
2018-09-27T03:29:47.154Z,8.70
2018-09-27T03:34:50.809Z,9.30
2018-09-27T03:45:22.712Z,14.23
2018-09-27T03:50:26.300Z,14.97
2018-09-27T03:55:29.892Z,17.47
2018-09-27T04:00:33.481Z,18.10
2018-09-27T04:05:37.081Z,19.20
2018-09-27T04:10:41.164Z,19.23
2018-09-27T04:15:45.063Z,21.27
2018-09-27T04:20:50.513Z,19.70
2018-09-27T04:25:54.095Z,18.80
2018-09-27T04:30:57.680Z,18.57
2018-09-27T04:36:01.977Z,18.70
2018-09-27T04:41:06.190Z,19.73
2018-09-27T04:46:09.744Z,19.87
2018-09-27T04:51:13.299Z,22.47
2018-09-27T04:56:17.916Z,23.43
2018-09-27T05:01:21.791Z,23.07
2018-09-27T05:06:25.663Z,22.77
2018-09-27T05:11:29.341Z,21.80
2018-09-27T05:16:33.192Z,21.53
2018-09-27T05:21:36.936Z,18.60
2018-09-27T05:26:42.616Z,18.90
2018-09-27T05:31:54.247Z,19.10
2018-09-27T05:36:59.184Z,21.37
2018-09-27T05:42:02.828Z,18.73
2018-09-27T05:47:08.024Z,20.63
2018-09-27T05:52:11.630Z,20.80
2018-09-27T05:57:15.250Z,19.90
2018-09-27T06:02:19.858Z,20.73
2018-09-27T06:07:23.487Z,21.70
2018-09-27T06:12:27.219Z,22.93
2018-09-27T06:17:32.299Z,23.63
2018-09-27T06:22:35.975Z,21.90
2018-09-27T06:27:40.210Z,24.40
2018-09-27T06:32:44.405Z,22.60
2018-09-27T06:37:48.593Z,23.53
2018-09-27T06:42:52.502Z,23.10
2018-09-27T06:47:58.267Z,22.80
2018-09-27T06:53:02.004Z,23.10
2018-09-27T06:58:05.823Z,22.70
2018-09-27T07:03:09.445Z,22.60
2018-09-27T07:08:13.750Z,22.30
2018-09-27T07:13:17.696Z,21.77
2018-09-27T07:18:21.412Z,21.57
2018-09-27T07:23:25.098Z,20.93
2018-09-27T07:28:28.775Z,20.60
2018-09-27T07:33:33.141Z,20.37
2018-09-27T07:38:37.854Z,21.80
2018-09-27T07:43:41.799Z,22.40
2018-09-27T07:48:45.487Z,20.70
2018-09-27T07:53:49.388Z,21.83
2018-09-27T07:58:53.111Z,21.07
2018-09-27T08:03:56.820Z,22.67
2018-09-27T08:09:01.151Z,22.10
2018-09-27T08:14:04.972Z,22.20
2018-09-27T08:19:08.667Z,21.20
2018-09-27T08:24:12.635Z,21.00
2018-09-27T08:29:22.611Z,21.47
2018-09-27T08:34:26.247Z,19.60
2018-09-27T08:39:29.900Z,19.67
2018-09-27T08:44:33.914Z,18.50
2018-09-27T08:49:37.566Z,20.00
2018-09-27T08:54:41.207Z,21.33
2018-09-27T08:59:44.847Z,20.10
2018-09-27T09:04:48.781Z,20.87
2018-09-27T09:09:52.418Z,21.10
2018-09-27T09:14:57.359Z,19.80
2018-09-27T09:20:01.032Z,19.67
2018-09-27T09:25:04.827Z,16.50
2018-09-27T09:30:08.922Z,15.77
2018-09-27T09:35:12.571Z,14.90
2018-09-27T09:40:16.302Z,15.33
2018-09-27T09:45:20.643Z,16.27
2018-09-27T09:50:25.937Z,13.63
2018-09-27T09:55:29.590Z,15.53
2018-09-27T10:00:34.892Z,17.80
2018-09-27T10:05:38.703Z,18.50
2018-09-27T10:10:42.583Z,21.23
2018-09-27T10:15:47.202Z,20.30
2018-09-27T10:20:51.497Z,22.27
2018-09-27T10:25:55.808Z,21.37
2018-09-27T10:31:00.072Z,20.17
2018-09-27T10:36:03.759Z,18.60
2018-09-27T10:41:07.749Z,19.90
2018-09-27T10:46:11.350Z,19.23
2018-09-27T10:51:15.067Z,18.80
2018-09-27T11:01:29.145Z,14.90
2018-09-27T11:06:32.813Z,16.33
2018-09-27T11:11:36.489Z,15.33
2018-09-27T11:16:40.181Z,13.67
2018-09-27T11:21:45.822Z,12.30
2018-09-27T11:26:49.356Z,11.53
2018-09-27T11:31:58.279Z,11.80
2018-09-27T11:37:01.903Z,10.83
2018-09-27T11:42:05.545Z,10.50
2018-09-27T11:47:09.206Z,10.20
2018-09-27T11:52:12.472Z,12.33
2018-09-27T11:57:16.851Z,11.90
2018-09-27T12:02:20.327Z,12.90
2018-09-27T12:07:23.636Z,13.10
2018-09-27T12:12:28.239Z,12.90
2018-09-27T12:17:32.217Z,13.97
2018-09-27T12:22:35.475Z,11.70
2018-09-27T12:27:38.714Z,13.37
2018-09-27T12:32:42.669Z,11.53
2018-09-27T12:37:45.911Z,10.23
2018-09-27T12:42:49.743Z,9.30
2018-09-27T12:47:53.804Z,8.50
2018-09-27T12:52:58.129Z,7.50
2018-09-27T12:58:01.385Z,6.43
2018-09-27T13:03:05.012Z,4.67
2018-09-27T13:08:09.036Z,5.23
2018-09-27T13:13:12.756Z,7.70
2018-09-27T13:18:17.220Z,6.80
2018-09-27T13:23:20.820Z,6.33
2018-09-27T13:28:24.556Z,6.30
2018-09-27T13:33:28.175Z,7.90
2018-09-27T13:38:31.956Z,5.90
2018-09-27T13:43:36.095Z,9.80
2018-09-27T13:48:39.711Z,4.57
2018-09-27T13:53:43.356Z,4.33
2018-09-27T13:58:47.102Z,4.20
2018-09-27T14:03:50.714Z,3.70
2018-09-27T14:08:54.539Z,3.37
2018-09-27T14:13:58.173Z,3.60
2018-09-27T14:19:07.542Z,3.80
2018-09-27T14:24:11.659Z,3.53
2018-09-27T14:29:15.287Z,3.50
2018-09-27T14:34:18.883Z,3.50
2018-09-27T14:39:22.779Z,3.00
2018-09-27T14:44:26.427Z,4.57
2018-09-27T14:49:30.116Z,4.60
2018-09-27T14:54:34.681Z,3.33
2018-09-27T14:59:38.624Z,3.80
2018-09-27T15:04:42.617Z,2.90
2018-09-27T15:09:48.237Z,3.13
2018-09-27T15:14:52.342Z,3.10
2018-09-27T15:19:56.017Z,3.33
2018-09-27T15:24:59.838Z,3.20
2018-09-27T15:30:19.643Z,11.70
2018-09-27T15:35:33.290Z,4.27
2018-09-27T15:40:36.903Z,3.60
2018-09-27T15:45:40.569Z,3.50
2018-09-27T15:50:44.344Z,4.13
2018-09-27T15:55:48.158Z,4.53
2018-09-27T16:00:53.005Z,4.37
2018-09-27T16:06:08.667Z,5.77
2018-09-27T16:11:12.476Z,5.23
2018-09-27T16:16:16.758Z,3.60
2018-09-27T16:21:20.378Z,3.70
2018-09-27T16:26:26.458Z,4.00
2018-09-27T16:31:30.403Z,3.97
2018-09-27T16:36:34.742Z,4.40
2018-09-27T16:41:38.747Z,5.40
2018-09-27T16:46:42.421Z,3.93
2018-09-27T16:51:46.541Z,4.17
2018-09-27T16:56:50.167Z,4.57
2018-09-27T17:01:53.821Z,4.67
2018-09-27T17:06:57.820Z,3.13
2018-09-27T17:12:01.475Z,3.10
2018-09-27T17:17:05.935Z,3.30
2018-09-27T17:22:09.564Z,3.33
2018-09-27T17:27:13.250Z,3.10
2018-09-27T17:32:16.911Z,3.60
2018-09-27T17:37:20.504Z,3.10
2018-09-27T17:42:26.881Z,3.90
2018-09-27T17:47:42.473Z,4.07
2018-09-27T17:52:46.163Z,3.23
2018-09-27T17:57:49.694Z,3.43
2018-09-27T18:02:53.297Z,4.10
2018-09-27T18:07:57.708Z,4.00
2018-09-27T18:13:01.298Z,4.40
2018-09-27T18:18:04.898Z,4.00
2018-09-27T18:23:10.968Z,4.43
2018-09-27T18:28:14.628Z,4.40
2018-09-27T18:33:18.504Z,3.90
2018-09-27T18:38:22.200Z,3.83
2018-09-27T18:43:25.865Z,4.13
2018-09-27T18:48:31.510Z,4.23
2018-09-27T18:53:35.055Z,4.40
2018-09-27T18:58:38.630Z,4.30
2018-09-27T19:03:42.218Z,5.07
2018-09-27T19:08:45.807Z,3.90
2018-09-27T19:13:49.436Z,4.17
2018-09-27T19:18:53.089Z,3.90
2018-09-27T19:23:58.193Z,3.80
2018-09-27T19:29:01.792Z,4.00
2018-09-27T19:34:05.385Z,4.13
2018-09-27T19:39:10.413Z,4.20
2018-09-27T19:44:14.028Z,3.90
2018-09-27T19:49:17.948Z,4.40
2018-09-27T19:54:21.661Z,4.30
2018-09-27T19:59:25.890Z,5.33
2018-09-27T20:04:29.528Z,4.60
2018-09-27T20:09:33.405Z,4.80
2018-09-27T20:14:37.238Z,4.80
2018-09-27T20:19:41.802Z,5.43
2018-09-27T20:24:46.139Z,5.17
2018-09-27T20:29:49.694Z,4.97
2018-09-27T20:34:53.250Z,5.20
2018-09-27T20:39:56.932Z,4.90
2018-09-27T20:45:00.583Z,5.13
2018-09-27T20:50:04.212Z,5.30
2018-09-27T20:55:11.728Z,5.00
2018-09-27T21:00:15.436Z,5.50
2018-09-27T21:05:19.041Z,5.27
2018-09-27T21:10:22.673Z,6.00
2018-09-27T21:15:26.397Z,6.90
2018-09-27T21:20:31.116Z,8.67
2018-09-27T21:25:35.797Z,6.50
2018-09-27T21:30:39.400Z,5.57
2018-09-27T21:35:42.976Z,6.17
2018-09-27T21:40:46.696Z,6.10
2018-09-27T21:45:50.268Z,5.50
2018-09-27T21:50:54.414Z,6.07
2018-09-27T21:55:59.160Z,5.10
2018-09-27T22:01:02.721Z,10.20
2018-09-27T22:06:10.683Z,6.30
2018-09-27T22:11:14.272Z,5.90
2018-09-27T22:16:17.920Z,6.90
2018-09-27T22:21:21.813Z,10.63
2018-09-27T22:26:26.518Z,8.67
2018-09-27T22:31:30.333Z,7.40
2018-09-27T22:36:34.284Z,8.40
2018-09-27T22:41:38.051Z,8.43
2018-09-27T22:46:41.681Z,8.90
2018-09-27T22:51:45.273Z,8.60
2018-09-27T22:56:48.966Z,7.47
2018-09-27T23:01:52.551Z,7.07
2018-09-27T23:07:00.115Z,7.23
2018-09-27T23:12:03.745Z,6.73
2018-09-27T23:17:07.824Z,8.20
2018-09-27T23:22:11.784Z,7.70
2018-09-27T23:27:15.456Z,6.93
2018-09-27T23:32:19.620Z,5.70
2018-09-27T23:37:24.120Z,6.70
2018-09-27T23:42:27.700Z,6.70
2018-09-27T23:47:31.251Z,6.60
2018-09-27T23:52:34.875Z,6.00
2018-09-27T23:57:38.455Z,7.30
